sensor_id;sensor_type;location;lat;lon;timestamp;P1;durP1;ratioP1;P2;durP2;ratioP2
18411;SDS011;27097;51.738;19.472;2022-10-17T00:01:06;25.63;;;16.80;;
18411;SDS011;27097;51.738;19.472;2022-10-17T00:03:34;27.05;;;16.88;;
18411;SDS011;27097;51.738;19.472;2022-10-17T00:06:03;25.63;;;16.75;;
18411;SDS011;27097;51.738;19.472;2022-10-17T00:08:32;26.17;;;16.77;;
18411;SDS011;27097;51.738;19.472;2022-10-17T00:10:59;27.45;;;16.80;;
18411;SDS011;27097;51.738;19.472;2022-10-17T00:13:29;26.88;;;16.27;;
18411;SDS011;27097;51.738;19.472;2022-10-17T00:15:56;27.13;;;17.15;;
18411;SDS011;27097;51.738;19.472;2022-10-17T00:18:23;25.90;;;16.00;;
18411;SDS011;27097;51.738;19.472;2022-10-17T00:20:50;27.83;;;17.08;;
18411;SDS011;27097;51.738;19.472;2022-10-17T00:23:17;31.65;;;16.35;;
18411;SDS011;27097;51.738;19.472;2022-10-17T00:25:45;28.15;;;16.50;;
18411;SDS011;27097;51.738;19.472;2022-10-17T00:28:12;28.08;;;17.30;;
18411;SDS011;27097;51.738;19.472;2022-10-17T00:30:41;23.67;;;15.90;;
18411;SDS011;27097;51.738;19.472;2022-10-17T00:33:08;25.92;;;15.98;;
18411;SDS011;27097;51.738;19.472;2022-10-17T00:35:35;26.92;;;16.35;;
18411;SDS011;27097;51.738;19.472;2022-10-17T00:38:02;27.60;;;16.52;;
18411;SDS011;27097;51.738;19.472;2022-10-17T00:40:29;25.80;;;16.65;;
18411;SDS011;27097;51.738;19.472;2022-10-17T00:42:56;29.27;;;16.52;;
18411;SDS011;27097;51.738;19.472;2022-10-17T00:45:23;26.65;;;16.45;;
18411;SDS011;27097;51.738;19.472;2022-10-17T00:47:57;24.33;;;15.93;;
18411;SDS011;27097;51.738;19.472;2022-10-17T00:50:26;25.80;;;16.65;;
18411;SDS011;27097;51.738;19.472;2022-10-17T00:52:53;26.10;;;16.25;;
18411;SDS011;27097;51.738;19.472;2022-10-17T00:55:25;27.80;;;16.30;;
18411;SDS011;27097;51.738;19.472;2022-10-17T00:57:56;27.35;;;16.27;;
18411;SDS011;27097;51.738;19.472;2022-10-17T01:00:25;24.15;;;16.15;;
18411;SDS011;27097;51.738;19.472;2022-10-17T01:02:56;23.02;;;16.13;;
18411;SDS011;27097;51.738;19.472;2022-10-17T01:05:23;25.42;;;15.85;;
18411;SDS011;27097;51.738;19.472;2022-10-17T01:07:51;24.25;;;16.42;;
18411;SDS011;27097;51.738;19.472;2022-10-17T01:10:19;24.90;;;15.77;;
18411;SDS011;27097;51.738;19.472;2022-10-17T01:12:49;25.77;;;16.35;;
18411;SDS011;27097;51.738;19.472;2022-10-17T01:15:28;28.63;;;17.02;;
18411;SDS011;27097;51.738;19.472;2022-10-17T01:18:09;28.33;;;17.02;;
18411;SDS011;27097;51.738;19.472;2022-10-17T01:23:55;27.08;;;16.70;;
18411;SDS011;27097;51.738;19.472;2022-10-17T01:26:58;26.38;;;16.50;;
18411;SDS011;27097;51.738;19.472;2022-10-17T01:29:54;30.02;;;16.80;;
18411;SDS011;27097;51.738;19.472;2022-10-17T01:32:33;27.00;;;16.52;;
18411;SDS011;27097;51.738;19.472;2022-10-17T01:35:03;26.02;;;17.10;;
18411;SDS011;27097;51.738;19.472;2022-10-17T01:37:39;23.50;;;16.30;;
18411;SDS011;27097;51.738;19.472;2022-10-17T01:40:11;27.45;;;17.65;;
18411;SDS011;27097;51.738;19.472;2022-10-17T01:42:44;28.95;;;16.90;;
18411;SDS011;27097;51.738;19.472;2022-10-17T01:45:18;27.85;;;17.00;;
18411;SDS011;27097;51.738;19.472;2022-10-17T01:47:51;25.20;;;16.67;;
18411;SDS011;27097;51.738;19.472;2022-10-17T01:50:22;25.08;;;17.25;;
18411;SDS011;27097;51.738;19.472;2022-10-17T01:52:54;26.83;;;17.17;;
18411;SDS011;27097;51.738;19.472;2022-10-17T01:55:26;29.08;;;16.55;;
18411;SDS011;27097;51.738;19.472;2022-10-17T01:57:57;31.63;;;17.33;;
18411;SDS011;27097;51.738;19.472;2022-10-17T02:00:28;25.63;;;17.15;;
18411;SDS011;27097;51.738;19.472;2022-10-17T02:02:59;27.45;;;16.98;;
18411;SDS011;27097;51.738;19.472;2022-10-17T02:05:30;27.80;;;17.27;;
18411;SDS011;27097;51.738;19.472;2022-10-17T02:08:00;26.85;;;17.08;;
18411;SDS011;27097;51.738;19.472;2022-10-17T02:10:29;25.30;;;16.67;;
18411;SDS011;27097;51.738;19.472;2022-10-17T02:13:03;26.75;;;16.17;;
18411;SDS011;27097;51.738;19.472;2022-10-17T02:18:37;23.98;;;15.90;;
18411;SDS011;27097;51.738;19.472;2022-10-17T02:21:13;28.35;;;16.85;;
18411;SDS011;27097;51.738;19.472;2022-10-17T02:23:47;25.80;;;15.77;;
18411;SDS011;27097;51.738;19.472;2022-10-17T02:26:23;24.80;;;16.73;;
18411;SDS011;27097;51.738;19.472;2022-10-17T02:28:57;25.05;;;16.25;;
18411;SDS011;27097;51.738;19.472;2022-10-17T02:31:32;24.67;;;15.38;;
18411;SDS011;27097;51.738;19.472;2022-10-17T02:34:07;25.48;;;16.65;;
18411;SDS011;27097;51.738;19.472;2022-10-17T02:36:38;24.65;;;16.45;;
18411;SDS011;27097;51.738;19.472;2022-10-17T02:39:10;30.58;;;17.17;;
18411;SDS011;27097;51.738;19.472;2022-10-17T02:41:38;23.92;;;16.08;;
18411;SDS011;27097;51.738;19.472;2022-10-17T02:44:06;25.75;;;15.55;;
18411;SDS011;27097;51.738;19.472;2022-10-17T02:46:34;26.02;;;16.67;;
18411;SDS011;27097;51.738;19.472;2022-10-17T02:49:05;25.58;;;16.25;;
18411;SDS011;27097;51.738;19.472;2022-10-17T02:51:42;28.15;;;16.55;;
18411;SDS011;27097;51.738;19.472;2022-10-17T02:54:14;30.42;;;17.05;;
18411;SDS011;27097;51.738;19.472;2022-10-17T02:56:47;22.80;;;15.45;;
18411;SDS011;27097;51.738;19.472;2022-10-17T02:59:20;26.95;;;16.40;;
18411;SDS011;27097;51.738;19.472;2022-10-17T03:01:50;26.08;;;15.23;;
18411;SDS011;27097;51.738;19.472;2022-10-17T03:04:19;30.88;;;16.38;;
18411;SDS011;27097;51.738;19.472;2022-10-17T03:06:46;25.33;;;16.38;;
18411;SDS011;27097;51.738;19.472;2022-10-17T03:09:14;25.00;;;16.08;;
18411;SDS011;27097;51.738;19.472;2022-10-17T03:11:41;25.35;;;15.35;;
18411;SDS011;27097;51.738;19.472;2022-10-17T03:14:08;25.70;;;16.35;;
18411;SDS011;27097;51.738;19.472;2022-10-17T03:16:35;25.73;;;15.30;;
18411;SDS011;27097;51.738;19.472;2022-10-17T03:19:02;23.67;;;15.52;;
18411;SDS011;27097;51.738;19.472;2022-10-17T03:21:30;27.65;;;16.38;;
18411;SDS011;27097;51.738;19.472;2022-10-17T03:23:57;23.25;;;15.40;;
18411;SDS011;27097;51.738;19.472;2022-10-17T03:26:24;24.27;;;16.08;;
18411;SDS011;27097;51.738;19.472;2022-10-17T03:28:51;23.88;;;15.27;;
18411;SDS011;27097;51.738;19.472;2022-10-17T03:31:18;27.45;;;15.65;;
18411;SDS011;27097;51.738;19.472;2022-10-17T03:33:45;25.42;;;15.15;;
18411;SDS011;27097;51.738;19.472;2022-10-17T03:36:12;22.70;;;15.35;;
18411;SDS011;27097;51.738;19.472;2022-10-17T03:38:42;26.77;;;15.40;;
18411;SDS011;27097;51.738;19.472;2022-10-17T03:41:09;26.17;;;16.23;;
18411;SDS011;27097;51.738;19.472;2022-10-17T03:43:36;24.38;;;14.82;;
18411;SDS011;27097;51.738;19.472;2022-10-17T03:46:03;21.90;;;14.35;;
18411;SDS011;27097;51.738;19.472;2022-10-17T03:48:31;23.08;;;15.25;;
18411;SDS011;27097;51.738;19.472;2022-10-17T03:50:58;29.35;;;15.93;;
18411;SDS011;27097;51.738;19.472;2022-10-17T03:53:26;24.08;;;15.40;;
18411;SDS011;27097;51.738;19.472;2022-10-17T03:55:54;24.38;;;15.30;;
18411;SDS011;27097;51.738;19.472;2022-10-17T03:58:21;25.92;;;15.77;;
18411;SDS011;27097;51.738;19.472;2022-10-17T04:00:48;25.23;;;15.32;;
18411;SDS011;27097;51.738;19.472;2022-10-17T04:03:16;23.63;;;15.13;;
18411;SDS011;27097;51.738;19.472;2022-10-17T04:05:44;26.90;;;15.43;;
18411;SDS011;27097;51.738;19.472;2022-10-17T04:08:11;24.33;;;15.15;;
18411;SDS011;27097;51.738;19.472;2022-10-17T04:10:37;24.08;;;15.55;;
18411;SDS011;27097;51.738;19.472;2022-10-17T04:13:06;24.02;;;14.75;;
18411;SDS011;27097;51.738;19.472;2022-10-17T04:15:33;24.13;;;15.10;;
18411;SDS011;27097;51.738;19.472;2022-10-17T04:17:59;24.45;;;15.23;;
18411;SDS011;27097;51.738;19.472;2022-10-17T04:20:26;27.23;;;16.20;;
18411;SDS011;27097;51.738;19.472;2022-10-17T04:22:53;24.80;;;15.10;;
18411;SDS011;27097;51.738;19.472;2022-10-17T04:25:20;25.27;;;15.40;;
18411;SDS011;27097;51.738;19.472;2022-10-17T04:27:47;23.63;;;14.68;;
18411;SDS011;27097;51.738;19.472;2022-10-17T04:30:15;24.85;;;15.25;;
18411;SDS011;27097;51.738;19.472;2022-10-17T04:32:42;26.60;;;15.75;;
18411;SDS011;27097;51.738;19.472;2022-10-17T04:35:09;23.75;;;15.60;;
18411;SDS011;27097;51.738;19.472;2022-10-17T04:37:36;23.88;;;15.02;;
18411;SDS011;27097;51.738;19.472;2022-10-17T04:40:03;25.50;;;16.38;;
18411;SDS011;27097;51.738;19.472;2022-10-17T04:42:31;25.17;;;15.35;;
18411;SDS011;27097;51.738;19.472;2022-10-17T04:44:58;26.02;;;15.18;;
18411;SDS011;27097;51.738;19.472;2022-10-17T04:47:26;22.90;;;15.77;;
18411;SDS011;27097;51.738;19.472;2022-10-17T04:49:53;22.98;;;15.30;;
18411;SDS011;27097;51.738;19.472;2022-10-17T04:52:20;25.45;;;15.90;;
18411;SDS011;27097;51.738;19.472;2022-10-17T04:54:46;26.73;;;15.48;;
18411;SDS011;27097;51.738;19.472;2022-10-17T04:57:13;22.02;;;14.70;;
18411;SDS011;27097;51.738;19.472;2022-10-17T04:59:40;24.00;;;15.43;;
18411;SDS011;27097;51.738;19.472;2022-10-17T05:02:07;23.40;;;15.20;;
18411;SDS011;27097;51.738;19.472;2022-10-17T05:04:36;21.38;;;14.70;;
18411;SDS011;27097;51.738;19.472;2022-10-17T05:07:03;25.77;;;15.88;;
18411;SDS011;27097;51.738;19.472;2022-10-17T05:09:30;22.63;;;14.98;;
18411;SDS011;27097;51.738;19.472;2022-10-17T05:11:56;27.92;;;15.68;;
18411;SDS011;27097;51.738;19.472;2022-10-17T05:14:23;28.65;;;16.23;;
18411;SDS011;27097;51.738;19.472;2022-10-17T05:16:50;26.58;;;15.63;;
18411;SDS011;27097;51.738;19.472;2022-10-17T05:19:17;23.13;;;14.02;;
18411;SDS011;27097;51.738;19.472;2022-10-17T05:21:45;24.23;;;14.90;;
18411;SDS011;27097;51.738;19.472;2022-10-17T05:24:13;24.75;;;15.80;;
18411;SDS011;27097;51.738;19.472;2022-10-17T05:26:40;26.02;;;15.70;;
18411;SDS011;27097;51.738;19.472;2022-10-17T05:29:07;26.13;;;15.27;;
18411;SDS011;27097;51.738;19.472;2022-10-17T05:31:37;20.27;;;14.02;;
18411;SDS011;27097;51.738;19.472;2022-10-17T05:34:04;23.13;;;13.27;;
18411;SDS011;27097;51.738;19.472;2022-10-17T05:36:31;20.08;;;13.10;;
18411;SDS011;27097;51.738;19.472;2022-10-17T05:38:59;21.75;;;12.70;;
18411;SDS011;27097;51.738;19.472;2022-10-17T05:41:26;20.23;;;12.63;;
18411;SDS011;27097;51.738;19.472;2022-10-17T05:43:53;24.00;;;12.75;;
18411;SDS011;27097;51.738;19.472;2022-10-17T05:46:19;22.90;;;12.27;;
18411;SDS011;27097;51.738;19.472;2022-10-17T05:48:46;23.92;;;13.70;;
18411;SDS011;27097;51.738;19.472;2022-10-17T05:51:13;23.90;;;12.65;;
18411;SDS011;27097;51.738;19.472;2022-10-17T05:53:40;25.02;;;13.15;;
18411;SDS011;27097;51.738;19.472;2022-10-17T05:56:09;28.17;;;13.00;;
18411;SDS011;27097;51.738;19.472;2022-10-17T05:58:38;23.55;;;12.27;;
18411;SDS011;27097;51.738;19.472;2022-10-17T06:01:06;30.17;;;13.25;;
18411;SDS011;27097;51.738;19.472;2022-10-17T06:03:34;19.55;;;11.82;;
18411;SDS011;27097;51.738;19.472;2022-10-17T06:06:02;34.30;;;12.10;;
18411;SDS011;27097;51.738;19.472;2022-10-17T06:08:30;31.17;;;12.40;;
18411;SDS011;27097;51.738;19.472;2022-10-17T06:10:57;32.22;;;12.55;;
18411;SDS011;27097;51.738;19.472;2022-10-17T06:13:25;30.77;;;12.63;;
18411;SDS011;27097;51.738;19.472;2022-10-17T06:15:52;24.33;;;12.93;;
18411;SDS011;27097;51.738;19.472;2022-10-17T06:18:19;26.02;;;13.05;;
18411;SDS011;27097;51.738;19.472;2022-10-17T06:20:46;31.38;;;12.73;;
18411;SDS011;27097;51.738;19.472;2022-10-17T06:23:13;23.60;;;11.90;;
18411;SDS011;27097;51.738;19.472;2022-10-17T06:25:40;24.33;;;11.95;;
18411;SDS011;27097;51.738;19.472;2022-10-17T06:28:07;23.42;;;12.48;;
18411;SDS011;27097;51.738;19.472;2022-10-17T06:30:37;23.15;;;12.75;;
18411;SDS011;27097;51.738;19.472;2022-10-17T06:33:05;24.85;;;12.45;;
18411;SDS011;27097;51.738;19.472;2022-10-17T06:35:32;18.90;;;12.23;;
18411;SDS011;27097;51.738;19.472;2022-10-17T06:37:58;24.90;;;11.45;;
18411;SDS011;27097;51.738;19.472;2022-10-17T06:40:25;20.75;;;11.85;;
18411;SDS011;27097;51.738;19.472;2022-10-17T06:42:52;27.33;;;12.35;;
18411;SDS011;27097;51.738;19.472;2022-10-17T06:45:19;23.13;;;12.70;;
18411;SDS011;27097;51.738;19.472;2022-10-17T06:47:47;21.92;;;11.95;;
18411;SDS011;27097;51.738;19.472;2022-10-17T06:50:14;22.13;;;12.48;;
18411;SDS011;27097;51.738;19.472;2022-10-17T06:52:41;24.20;;;12.27;;
18411;SDS011;27097;51.738;19.472;2022-10-17T06:55:08;27.75;;;11.82;;
18411;SDS011;27097;51.738;19.472;2022-10-17T06:57:35;22.35;;;12.13;;
18411;SDS011;27097;51.738;19.472;2022-10-17T07:00:02;23.27;;;12.48;;
18411;SDS011;27097;51.738;19.472;2022-10-17T07:02:30;24.70;;;12.20;;
18411;SDS011;27097;51.738;19.472;2022-10-17T07:04:59;20.45;;;11.80;;
18411;SDS011;27097;51.738;19.472;2022-10-17T07:07:26;22.55;;;11.52;;
18411;SDS011;27097;51.738;19.472;2022-10-17T07:09:56;15.55;;;10.93;;
18411;SDS011;27097;51.738;19.472;2022-10-17T07:12:23;20.67;;;11.93;;
18411;SDS011;27097;51.738;19.472;2022-10-17T07:14:50;21.10;;;11.98;;
18411;SDS011;27097;51.738;19.472;2022-10-17T07:17:18;22.90;;;11.55;;
18411;SDS011;27097;51.738;19.472;2022-10-17T07:19:45;19.35;;;11.55;;
18411;SDS011;27097;51.738;19.472;2022-10-17T07:22:14;17.58;;;11.00;;
18411;SDS011;27097;51.738;19.472;2022-10-17T07:24:41;19.92;;;11.65;;
18411;SDS011;27097;51.738;19.472;2022-10-17T07:27:08;18.75;;;11.00;;
18411;SDS011;27097;51.738;19.472;2022-10-17T07:29:35;20.85;;;11.30;;
18411;SDS011;27097;51.738;19.472;2022-10-17T07:32:02;21.10;;;11.30;;
18411;SDS011;27097;51.738;19.472;2022-10-17T07:34:32;22.38;;;11.57;;
18411;SDS011;27097;51.738;19.472;2022-10-17T07:36:59;27.20;;;11.82;;
18411;SDS011;27097;51.738;19.472;2022-10-17T07:39:28;23.25;;;11.75;;
18411;SDS011;27097;51.738;19.472;2022-10-17T07:41:55;22.27;;;11.35;;
18411;SDS011;27097;51.738;19.472;2022-10-17T07:44:22;20.27;;;11.35;;
18411;SDS011;27097;51.738;19.472;2022-10-17T07:46:49;20.30;;;10.73;;
18411;SDS011;27097;51.738;19.472;2022-10-17T07:49:16;18.13;;;10.85;;
18411;SDS011;27097;51.738;19.472;2022-10-17T07:51:43;19.50;;;10.55;;
18411;SDS011;27097;51.738;19.472;2022-10-17T07:54:10;17.05;;;10.32;;
18411;SDS011;27097;51.738;19.472;2022-10-17T07:56:39;16.88;;;10.60;;
18411;SDS011;27097;51.738;19.472;2022-10-17T07:59:06;20.70;;;10.27;;
18411;SDS011;27097;51.738;19.472;2022-10-17T08:01:33;16.60;;;10.27;;
18411;SDS011;27097;51.738;19.472;2022-10-17T08:04:00;20.23;;;10.50;;
18411;SDS011;27097;51.738;19.472;2022-10-17T08:06:27;20.85;;;11.25;;
18411;SDS011;27097;51.738;19.472;2022-10-17T08:08:54;17.55;;;10.60;;
18411;SDS011;27097;51.738;19.472;2022-10-17T08:11:21;14.93;;;10.63;;
18411;SDS011;27097;51.738;19.472;2022-10-17T08:13:50;16.02;;;10.85;;
18411;SDS011;27097;51.738;19.472;2022-10-17T08:16:17;15.10;;;9.57;;
18411;SDS011;27097;51.738;19.472;2022-10-17T08:18:44;14.05;;;10.02;;
18411;SDS011;27097;51.738;19.472;2022-10-17T08:21:11;22.35;;;10.02;;
18411;SDS011;27097;51.738;19.472;2022-10-17T08:23:38;398.00;;;37.50;;
18411;SDS011;27097;51.738;19.472;2022-10-17T08:26:06;498.88;;;46.08;;
18411;SDS011;27097;51.738;19.472;2022-10-17T08:28:34;374.70;;;38.50;;
18411;SDS011;27097;51.738;19.472;2022-10-17T08:31:04;272.10;;;34.65;;
18411;SDS011;27097;51.738;19.472;2022-10-17T08:33:32;273.15;;;31.92;;
18411;SDS011;27097;51.738;19.472;2022-10-17T08:35:59;203.30;;;28.42;;
18411;SDS011;27097;51.738;19.472;2022-10-17T08:38:27;155.90;;;24.55;;
18411;SDS011;27097;51.738;19.472;2022-10-17T08:40:55;148.77;;;24.70;;
18411;SDS011;27097;51.738;19.472;2022-10-17T08:43:35;122.47;;;22.40;;
18411;SDS011;27097;51.738;19.472;2022-10-17T08:46:13;76.95;;;18.33;;
18411;SDS011;27097;51.738;19.472;2022-10-17T08:48:41;75.72;;;18.35;;
18411;SDS011;27097;51.738;19.472;2022-10-17T08:51:11;80.18;;;18.30;;
18411;SDS011;27097;51.738;19.472;2022-10-17T08:53:44;79.60;;;18.00;;
18411;SDS011;27097;51.738;19.472;2022-10-17T08:56:17;62.92;;;17.70;;
18411;SDS011;27097;51.738;19.472;2022-10-17T08:58:45;63.20;;;16.33;;
18411;SDS011;27097;51.738;19.472;2022-10-17T09:01:18;52.58;;;15.57;;
18411;SDS011;27097;51.738;19.472;2022-10-17T09:03:58;55.10;;;14.95;;
18411;SDS011;27097;51.738;19.472;2022-10-17T09:06:35;43.22;;;14.93;;
18411;SDS011;27097;51.738;19.472;2022-10-17T09:09:12;52.70;;;15.73;;
18411;SDS011;27097;51.738;19.472;2022-10-17T09:11:53;37.67;;;15.13;;
18411;SDS011;27097;51.738;19.472;2022-10-17T09:14:37;35.60;;;14.18;;
18411;SDS011;27097;51.738;19.472;2022-10-17T09:17:29;38.20;;;14.73;;
18411;SDS011;27097;51.738;19.472;2022-10-17T09:20:03;37.83;;;14.98;;
18411;SDS011;27097;51.738;19.472;2022-10-17T09:22:36;29.15;;;13.35;;
18411;SDS011;27097;51.738;19.472;2022-10-17T09:25:08;30.63;;;13.63;;
18411;SDS011;27097;51.738;19.472;2022-10-17T09:27:39;29.02;;;13.63;;
18411;SDS011;27097;51.738;19.472;2022-10-17T09:30:16;31.10;;;13.70;;
18411;SDS011;27097;51.738;19.472;2022-10-17T09:32:57;27.05;;;13.02;;
18411;SDS011;27097;51.738;19.472;2022-10-17T09:35:24;24.40;;;12.55;;
18411;SDS011;27097;51.738;19.472;2022-10-17T09:37:54;23.30;;;13.70;;
18411;SDS011;27097;51.738;19.472;2022-10-17T09:40:23;23.05;;;12.40;;
18411;SDS011;27097;51.738;19.472;2022-10-17T09:42:52;23.25;;;12.70;;
18411;SDS011;27097;51.738;19.472;2022-10-17T09:45:19;24.27;;;12.82;;
18411;SDS011;27097;51.738;19.472;2022-10-17T09:47:52;25.15;;;12.80;;
18411;SDS011;27097;51.738;19.472;2022-10-17T09:50:26;21.35;;;12.32;;
18411;SDS011;27097;51.738;19.472;2022-10-17T09:52:55;21.77;;;12.63;;
18411;SDS011;27097;51.738;19.472;2022-10-17T09:55:27;24.70;;;13.25;;
18411;SDS011;27097;51.738;19.472;2022-10-17T09:58:02;25.90;;;12.45;;
18411;SDS011;27097;51.738;19.472;2022-10-17T10:00:32;23.88;;;13.13;;
18411;SDS011;27097;51.738;19.472;2022-10-17T10:05:58;19.35;;;12.20;;
18411;SDS011;27097;51.738;19.472;2022-10-17T10:08:27;20.02;;;11.65;;
18411;SDS011;27097;51.738;19.472;2022-10-17T10:10:56;21.83;;;12.23;;
18411;SDS011;27097;51.738;19.472;2022-10-17T10:13:27;21.83;;;11.93;;
18411;SDS011;27097;51.738;19.472;2022-10-17T10:15:54;27.38;;;12.45;;
18411;SDS011;27097;51.738;19.472;2022-10-17T10:18:41;28.05;;;12.90;;
18411;SDS011;27097;51.738;19.472;2022-10-17T10:21:10;20.63;;;12.23;;
18411;SDS011;27097;51.738;19.472;2022-10-17T10:23:38;20.02;;;12.07;;
18411;SDS011;27097;51.738;19.472;2022-10-17T10:26:19;15.45;;;11.45;;
18411;SDS011;27097;51.738;19.472;2022-10-17T10:28:53;19.15;;;11.68;;
18411;SDS011;27097;51.738;19.472;2022-10-17T10:31:26;17.83;;;12.20;;
18411;SDS011;27097;51.738;19.472;2022-10-17T10:33:57;22.25;;;12.52;;
18411;SDS011;27097;51.738;19.472;2022-10-17T10:36:40;18.52;;;12.18;;
18411;SDS011;27097;51.738;19.472;2022-10-17T10:39:27;16.85;;;12.25;;
18411;SDS011;27097;51.738;19.472;2022-10-17T10:41:58;19.50;;;12.73;;
18411;SDS011;27097;51.738;19.472;2022-10-17T10:44:27;16.52;;;11.60;;
18411;SDS011;27097;51.738;19.472;2022-10-17T10:47:06;19.20;;;12.27;;
18411;SDS011;27097;51.738;19.472;2022-10-17T10:49:41;17.75;;;12.10;;
18411;SDS011;27097;51.738;19.472;2022-10-17T10:52:09;20.15;;;12.75;;
18411;SDS011;27097;51.738;19.472;2022-10-17T10:54:43;18.20;;;12.30;;
18411;SDS011;27097;51.738;19.472;2022-10-17T10:57:17;16.58;;;11.60;;
18411;SDS011;27097;51.738;19.472;2022-10-17T10:59:50;16.55;;;11.85;;
18411;SDS011;27097;51.738;19.472;2022-10-17T11:02:23;25.40;;;12.07;;
18411;SDS011;27097;51.738;19.472;2022-10-17T11:04:57;16.80;;;11.63;;
18411;SDS011;27097;51.738;19.472;2022-10-17T11:07:28;17.77;;;11.35;;
18411;SDS011;27097;51.738;19.472;2022-10-17T11:09:59;18.30;;;11.88;;
18411;SDS011;27097;51.738;19.472;2022-10-17T11:12:34;17.38;;;11.50;;
18411;SDS011;27097;51.738;19.472;2022-10-17T11:15:06;17.63;;;11.73;;
18411;SDS011;27097;51.738;19.472;2022-10-17T11:17:44;15.15;;;11.07;;
18411;SDS011;27097;51.738;19.472;2022-10-17T11:20:18;19.77;;;11.77;;
18411;SDS011;27097;51.738;19.472;2022-10-17T11:22:51;18.45;;;11.48;;
18411;SDS011;27097;51.738;19.472;2022-10-17T11:25:28;18.45;;;12.00;;
18411;SDS011;27097;51.738;19.472;2022-10-17T11:27:58;17.98;;;12.27;;
18411;SDS011;27097;51.738;19.472;2022-10-17T11:30:27;20.30;;;13.00;;
18411;SDS011;27097;51.738;19.472;2022-10-17T11:33:01;21.17;;;12.32;;
18411;SDS011;27097;51.738;19.472;2022-10-17T11:35:32;19.13;;;12.30;;
18411;SDS011;27097;51.738;19.472;2022-10-17T11:38:05;17.75;;;11.68;;
18411;SDS011;27097;51.738;19.472;2022-10-17T11:40:44;17.48;;;12.00;;
18411;SDS011;27097;51.738;19.472;2022-10-17T11:43:16;17.95;;;12.13;;
18411;SDS011;27097;51.738;19.472;2022-10-17T11:45:47;19.70;;;11.88;;
18411;SDS011;27097;51.738;19.472;2022-10-17T11:48:19;19.77;;;12.20;;
18411;SDS011;27097;51.738;19.472;2022-10-17T11:50:52;18.13;;;11.43;;
18411;SDS011;27097;51.738;19.472;2022-10-17T11:53:26;16.10;;;11.13;;
18411;SDS011;27097;51.738;19.472;2022-10-17T11:55:58;16.98;;;11.88;;
18411;SDS011;27097;51.738;19.472;2022-10-17T11:58:28;15.38;;;11.73;;
18411;SDS011;27097;51.738;19.472;2022-10-17T12:01:06;22.60;;;11.63;;
18411;SDS011;27097;51.738;19.472;2022-10-17T12:03:43;17.90;;;11.48;;
18411;SDS011;27097;51.738;19.472;2022-10-17T12:06:27;17.25;;;11.55;;
18411;SDS011;27097;51.738;19.472;2022-10-17T12:09:05;19.00;;;11.35;;
18411;SDS011;27097;51.738;19.472;2022-10-17T12:11:39;19.02;;;11.38;;
18411;SDS011;27097;51.738;19.472;2022-10-17T12:14:34;17.30;;;10.98;;
18411;SDS011;27097;51.738;19.472;2022-10-17T12:17:26;19.20;;;11.35;;
18411;SDS011;27097;51.738;19.472;2022-10-17T12:22:53;17.65;;;11.60;;
18411;SDS011;27097;51.738;19.472;2022-10-17T12:25:21;14.95;;;10.88;;
18411;SDS011;27097;51.738;19.472;2022-10-17T12:28:01;17.48;;;11.57;;
18411;SDS011;27097;51.738;19.472;2022-10-17T12:30:50;16.52;;;11.48;;
18411;SDS011;27097;51.738;19.472;2022-10-17T12:33:19;15.55;;;10.93;;
18411;SDS011;27097;51.738;19.472;2022-10-17T12:35:48;17.65;;;11.93;;
18411;SDS011;27097;51.738;19.472;2022-10-17T12:38:21;21.50;;;11.05;;
18411;SDS011;27097;51.738;19.472;2022-10-17T12:40:58;16.10;;;10.80;;
18411;SDS011;27097;51.738;19.472;2022-10-17T12:43:35;15.32;;;10.15;;
18411;SDS011;27097;51.738;19.472;2022-10-17T12:49:21;21.00;;;12.18;;
18411;SDS011;27097;51.738;19.472;2022-10-17T12:52:05;14.40;;;10.65;;
18411;SDS011;27097;51.738;19.472;2022-10-17T12:54:50;17.85;;;11.60;;
18411;SDS011;27097;51.738;19.472;2022-10-17T12:57:20;18.67;;;10.88;;
18411;SDS011;27097;51.738;19.472;2022-10-17T12:59:52;17.30;;;11.07;;
18411;SDS011;27097;51.738;19.472;2022-10-17T13:02:19;21.90;;;11.85;;
18411;SDS011;27097;51.738;19.472;2022-10-17T13:04:49;19.55;;;11.55;;
18411;SDS011;27097;51.738;19.472;2022-10-17T13:07:22;18.30;;;11.77;;
18411;SDS011;27097;51.738;19.472;2022-10-17T13:09:51;18.52;;;11.65;;
18411;SDS011;27097;51.738;19.472;2022-10-17T13:12:19;20.50;;;12.13;;
18411;SDS011;27097;51.738;19.472;2022-10-17T13:14:49;19.25;;;11.70;;
18411;SDS011;27097;51.738;19.472;2022-10-17T13:17:20;25.27;;;11.40;;
18411;SDS011;27097;51.738;19.472;2022-10-17T13:19:51;17.30;;;10.57;;
18411;SDS011;27097;51.738;19.472;2022-10-17T13:22:19;18.88;;;11.40;;
18411;SDS011;27097;51.738;19.472;2022-10-17T13:24:47;17.23;;;11.55;;
18411;SDS011;27097;51.738;19.472;2022-10-17T13:27:24;22.83;;;11.18;;
18411;SDS011;27097;51.738;19.472;2022-10-17T13:29:53;17.80;;;11.95;;
18411;SDS011;27097;51.738;19.472;2022-10-17T13:32:21;17.77;;;11.18;;
18411;SDS011;27097;51.738;19.472;2022-10-17T13:37:31;20.33;;;11.63;;
18411;SDS011;27097;51.738;19.472;2022-10-17T13:39:59;23.90;;;11.90;;
18411;SDS011;27097;51.738;19.472;2022-10-17T13:42:29;22.23;;;11.68;;
18411;SDS011;27097;51.738;19.472;2022-10-17T13:45:03;20.42;;;12.10;;
18411;SDS011;27097;51.738;19.472;2022-10-17T13:47:41;24.00;;;12.73;;
18411;SDS011;27097;51.738;19.472;2022-10-17T13:50:12;20.50;;;12.93;;
18411;SDS011;27097;51.738;19.472;2022-10-17T13:52:45;19.80;;;12.02;;
18411;SDS011;27097;51.738;19.472;2022-10-17T13:55:13;20.13;;;12.20;;
18411;SDS011;27097;51.738;19.472;2022-10-17T13:57:45;18.75;;;11.93;;
18411;SDS011;27097;51.738;19.472;2022-10-17T14:00:16;23.70;;;12.52;;
18411;SDS011;27097;51.738;19.472;2022-10-17T14:02:45;27.00;;;12.57;;
18411;SDS011;27097;51.738;19.472;2022-10-17T14:05:14;26.30;;;12.77;;
18411;SDS011;27097;51.738;19.472;2022-10-17T14:07:43;22.98;;;12.40;;
18411;SDS011;27097;51.738;19.472;2022-10-17T14:10:17;26.08;;;12.10;;
18411;SDS011;27097;51.738;19.472;2022-10-17T14:12:49;21.17;;;12.00;;
18411;SDS011;27097;51.738;19.472;2022-10-17T14:15:17;20.88;;;11.90;;
18411;SDS011;27097;51.738;19.472;2022-10-17T14:17:44;22.85;;;12.27;;
18411;SDS011;27097;51.738;19.472;2022-10-17T14:20:16;21.40;;;12.93;;
18411;SDS011;27097;51.738;19.472;2022-10-17T14:22:44;23.88;;;12.75;;
18411;SDS011;27097;51.738;19.472;2022-10-17T14:25:30;20.25;;;11.73;;
18411;SDS011;27097;51.738;19.472;2022-10-17T14:28:02;19.25;;;11.77;;
18411;SDS011;27097;51.738;19.472;2022-10-17T14:30:39;20.75;;;12.10;;
18411;SDS011;27097;51.738;19.472;2022-10-17T14:33:11;19.35;;;11.85;;
18411;SDS011;27097;51.738;19.472;2022-10-17T14:35:47;26.50;;;12.88;;
18411;SDS011;27097;51.738;19.472;2022-10-17T14:38:15;21.27;;;13.23;;
18411;SDS011;27097;51.738;19.472;2022-10-17T14:40:48;21.05;;;12.75;;
18411;SDS011;27097;51.738;19.472;2022-10-17T14:43:19;18.08;;;11.82;;
18411;SDS011;27097;51.738;19.472;2022-10-17T14:45:48;23.05;;;12.27;;